This is the latest recevied weather packets stored in our database for station/object G6LTT-13. If no packets are shown the sender has not sent any weather packets the latest 10 day(s).
| Time | Temp. | Humidity | Pressure | Rain* | Wind** | Luminosity | Snow |
|---|---|---|---|---|---|---|---|
| 1777685680 | 11.11° C | 82% | 1046.8 hPa | 0 mm | - | - | - |
| 1777683880 | 11.67° C | 78% | 1047.5 hPa | 0 mm | - | - | - |
| 1777682152 | 12.22° C | 75% | 1047.7 hPa | 0 mm | - | - | - |
| 1777680280 | 12.78° C | 70% | 1048 hPa | 0 mm | - | - | - |
| 1777678480 | 13.33° C | 67% | 1048.1 hPa | 0 mm | - | - | - |
| 1777676680 | 14.44° C | 72% | 1047.9 hPa | 0 mm | - | - | - |
| 1777674880 | 15° C | 71% | 1047.9 hPa | 0 mm | - | - | - |
| 1777673080 | 16.11° C | 67% | 1048.1 hPa | 0 mm | - | - | - |
| 1777671280 | 16.67° C | 67% | 1047.9 hPa | 0 mm | - | - | - |
| 1777669480 | 17.22° C | 65% | 1047.8 hPa | 0 mm | - | - | - |
| 1777667680 | 17.78° C | 65% | 1048 hPa | 0 mm | - | - | - |
| 1777665880 | 17.78° C | 62% | 1047.8 hPa | 0 mm | - | - | - |
| 1777664080 | 18.33° C | 62% | 1047.5 hPa | 0 mm | - | - | - |
| 1777662280 | 19.44° C | 60% | 1047.3 hPa | 0 mm | - | - | - |
| 1777660493 | 20° C | 59% | 1047 hPa | 0 mm | - | - | - |
| 1777658680 | 21.11° C | 57% | 1047 hPa | 0 mm | - | - | - |
| 1777656880 | 21.67° C | 55% | 1046.9 hPa | 0 mm | - | - | - |
| 1777655080 | 22.22° C | 56% | 1046.7 hPa | 0 mm | - | - | - |
| 1777653280 | 22.22° C | 53% | 1046.7 hPa | 0 mm | - | - | - |
| 1777651480 | 23.33° C | 50% | 1046.8 hPa | 0 mm | - | - | - |
| 1777649680 | 23.89° C | 45% | 1046.9 hPa | 0 mm | - | - | - |
| 1777647880 | 24.44° C | 43% | 1047.1 hPa | 0 mm | - | - | - |
| 1777646080 | 24.44° C | 40% | 1047.1 hPa | 0 mm | - | - | - |
| 1777644280 | 24.44° C | 37% | 1047.5 hPa | 0 mm | - | - | - |
| 1777642480 | 24.44° C | 35% | 1047.7 hPa | 0 mm | - | - | - |
* Rain latest hour (hover to see other rain measurements)
** Current wind speed in m/s (hover to see current wind gust speed)